createdAt,value
2023-03-25T00:01:08.537Z,2.87
2023-03-25T00:03:37.661Z,3.62
2023-03-25T00:06:06.278Z,3.47
2023-03-25T00:08:32.996Z,3.95
2023-03-25T00:11:01.225Z,3.12
2023-03-25T00:13:27.739Z,3.90
2023-03-25T00:15:57.615Z,3.05
2023-03-25T00:18:28.605Z,4.18
2023-03-25T00:20:55.858Z,3.58
2023-03-25T00:23:22.811Z,3.28
2023-03-25T00:25:52.119Z,4.10
2023-03-25T00:28:19.081Z,4.28
2023-03-25T00:30:46.005Z,4.18
2023-03-25T00:33:13.102Z,4.75
2023-03-25T00:35:44.048Z,4.57
2023-03-25T00:38:11.405Z,4.68
2023-03-25T00:40:38.602Z,3.40
2023-03-25T00:43:05.920Z,3.40
2023-03-25T00:45:33.502Z,3.72
2023-03-25T00:48:00.496Z,3.45
2023-03-25T00:50:27.170Z,3.70
2023-03-25T00:52:54.016Z,5.32
2023-03-25T00:55:21.401Z,4.65
2023-03-25T00:57:48.024Z,5.15
2023-03-25T01:00:17.293Z,5.35
2023-03-25T01:02:45.143Z,4.68
2023-03-25T01:05:11.731Z,5.20
2023-03-25T01:07:39.569Z,3.47
2023-03-25T01:10:08.415Z,2.45
2023-03-25T01:12:34.899Z,3.45
2023-03-25T01:15:01.678Z,2.55
2023-03-25T01:17:29.848Z,3.40
2023-03-25T01:19:56.628Z,3.20
2023-03-25T01:22:23.272Z,2.53
2023-03-25T01:24:50.029Z,4.78
2023-03-25T01:27:16.610Z,2.70
2023-03-25T01:29:43.296Z,3.95
2023-03-25T01:32:10.309Z,4.62
2023-03-25T01:34:37.991Z,3.30
2023-03-25T01:37:04.443Z,2.30
2023-03-25T01:39:31.282Z,3.72
2023-03-25T01:41:57.908Z,2.47
2023-03-25T01:45:00.229Z,3.75
2023-03-25T01:47:27.536Z,3.17
2023-03-25T01:49:54.124Z,3.40
2023-03-25T01:52:24.854Z,2.90
2023-03-25T01:54:55.376Z,2.40
2023-03-25T01:57:23.686Z,4.32
2023-03-25T01:59:53.508Z,2.72
2023-03-25T02:02:21.200Z,4.65
2023-03-25T02:04:58.314Z,3.53
2023-03-25T02:07:30.602Z,4.22
2023-03-25T02:10:01.511Z,4.28
2023-03-25T02:12:29.225Z,4.70
2023-03-25T02:15:00.158Z,4.50
2023-03-25T02:17:51.193Z,4.62
2023-03-25T02:20:53.684Z,5.70
2023-03-25T02:23:41.340Z,5.43
2023-03-25T02:26:41.913Z,4.75
2023-03-25T02:29:28.604Z,4.45
2023-03-25T02:32:29.739Z,4.95
2023-03-25T02:35:24.020Z,5.32
2023-03-25T02:38:21.161Z,4.68
2023-03-25T02:40:57.942Z,3.22
2023-03-25T02:43:39.908Z,5.07
2023-03-25T02:46:11.426Z,2.30
2023-03-25T02:48:50.620Z,4.20
2023-03-25T02:51:23.845Z,2.80
2023-03-25T02:53:52.761Z,3.90
2023-03-25T02:56:22.739Z,5.87
2023-03-25T02:58:55.034Z,5.00
2023-03-25T03:01:26.203Z,3.25
2023-03-25T03:03:54.657Z,5.90
2023-03-25T03:06:23.741Z,4.05
2023-03-25T03:09:11.068Z,4.57
2023-03-25T03:11:57.948Z,3.58
2023-03-25T03:14:35.165Z,4.10
2023-03-25T03:17:27.795Z,6.07
2023-03-25T03:20:01.890Z,5.75
2023-03-25T03:22:46.216Z,5.40
2023-03-25T03:25:27.131Z,3.92
2023-03-25T03:28:01.497Z,4.12
2023-03-25T03:30:43.321Z,5.30
2023-03-25T03:33:38.285Z,4.07
2023-03-25T03:36:13.111Z,7.72
2023-03-25T03:38:47.191Z,6.97
2023-03-25T03:41:20.398Z,4.37
2023-03-25T03:43:53.402Z,5.37
2023-03-25T03:46:26.921Z,6.93
2023-03-25T03:48:56.672Z,5.62
2023-03-25T03:51:31.503Z,5.57
2023-03-25T03:54:03.343Z,5.70
2023-03-25T03:56:37.875Z,5.93
2023-03-25T03:59:12.086Z,5.37
2023-03-25T04:01:46.172Z,6.03
2023-03-25T04:04:20.809Z,6.47
2023-03-25T04:06:56.272Z,6.53
2023-03-25T04:09:54.500Z,7.10
2023-03-25T04:12:25.785Z,6.32
2023-03-25T04:14:54.762Z,5.82
2023-03-25T04:17:23.384Z,5.97
2023-03-25T04:19:52.984Z,6.93
2023-03-25T04:22:21.164Z,5.35
2023-03-25T04:24:51.146Z,5.45
2023-03-25T04:27:19.089Z,6.12
2023-03-25T04:29:47.084Z,7.30
2023-03-25T04:32:14.243Z,5.35
2023-03-25T04:34:41.426Z,7.10
2023-03-25T04:37:08.352Z,6.93
2023-03-25T04:39:34.890Z,8.40
2023-03-25T04:42:02.532Z,8.38
2023-03-25T04:44:32.840Z,7.65
2023-03-25T04:47:01.728Z,7.55
2023-03-25T04:49:28.411Z,8.43
2023-03-25T04:51:56.353Z,6.93
2023-03-25T04:54:23.594Z,6.93
2023-03-25T04:56:51.510Z,8.15
2023-03-25T04:59:19.267Z,6.97
2023-03-25T05:01:46.858Z,8.00
2023-03-25T05:04:16.677Z,7.35
2023-03-25T05:06:46.563Z,6.97
2023-03-25T05:09:16.057Z,7.35
2023-03-25T05:11:42.978Z,5.30
2023-03-25T05:14:10.364Z,5.50
2023-03-25T05:16:37.405Z,6.22
2023-03-25T05:19:05.909Z,5.20
2023-03-25T05:21:35.690Z,5.82
2023-03-25T05:24:03.876Z,5.50
2023-03-25T05:26:33.687Z,5.70
2023-03-25T05:29:05.176Z,6.07
2023-03-25T05:31:31.987Z,5.50
2023-03-25T05:33:58.587Z,4.60
2023-03-25T05:36:25.214Z,3.92
2023-03-25T05:38:53.872Z,4.72
2023-03-25T05:41:22.186Z,5.05
2023-03-25T05:43:50.323Z,4.07
2023-03-25T05:46:18.480Z,4.15
2023-03-25T05:48:45.951Z,3.85
2023-03-25T05:51:15.904Z,3.95
2023-03-25T05:53:44.258Z,5.15
2023-03-25T05:56:11.306Z,4.03
2023-03-25T05:58:38.917Z,3.65
2023-03-25T06:01:06.101Z,4.45
2023-03-25T06:03:33.678Z,4.10
2023-03-25T06:06:01.154Z,4.12
2023-03-25T06:08:29.285Z,4.32
2023-03-25T06:10:57.860Z,4.68
2023-03-25T06:13:24.857Z,4.47
2023-03-25T06:15:55.472Z,3.78
2023-03-25T06:18:24.223Z,3.75
2023-03-25T06:20:56.262Z,4.20
2023-03-25T06:23:24.335Z,2.95
2023-03-25T06:25:51.053Z,3.75
2023-03-25T06:28:18.604Z,4.30
2023-03-25T06:30:46.630Z,4.20
2023-03-25T06:33:14.534Z,4.87
2023-03-25T06:36:01.186Z,3.95
2023-03-25T06:38:29.385Z,4.05
2023-03-25T06:40:57.716Z,3.50
2023-03-25T06:43:24.753Z,3.22
2023-03-25T06:45:52.563Z,4.10
2023-03-25T06:48:20.166Z,3.83
2023-03-25T06:50:46.924Z,3.87
2023-03-25T06:53:13.497Z,3.70
2023-03-25T06:55:40.797Z,3.58
2023-03-25T06:58:07.594Z,3.90
2023-03-25T07:00:34.206Z,4.43
2023-03-25T07:03:01.159Z,3.72
2023-03-25T07:05:28.251Z,3.75
2023-03-25T07:07:54.869Z,4.35
2023-03-25T07:10:21.344Z,4.40
2023-03-25T07:12:48.278Z,3.75
2023-03-25T07:15:14.891Z,4.53
2023-03-25T07:17:43.155Z,3.15
2023-03-25T07:20:12.142Z,3.25
2023-03-25T07:22:40.083Z,3.95
2023-03-25T07:25:06.936Z,3.90
2023-03-25T07:27:33.665Z,3.08
2023-03-25T07:30:01.158Z,3.53
2023-03-25T07:32:29.672Z,3.22
2023-03-25T07:34:56.948Z,4.18
2023-03-25T07:37:23.430Z,4.20
2023-03-25T07:39:50.064Z,3.67
2023-03-25T07:42:17.009Z,4.03
2023-03-25T07:44:45.896Z,4.25
2023-03-25T07:47:12.339Z,4.68
2023-03-25T07:49:40.403Z,4.62
2023-03-25T07:52:07.152Z,4.18
2023-03-25T07:54:33.625Z,4.45
2023-03-25T07:57:00.383Z,4.18
2023-03-25T07:59:28.829Z,3.95
2023-03-25T08:01:55.893Z,3.70
2023-03-25T08:04:22.829Z,4.47
2023-03-25T08:06:49.337Z,5.20
2023-03-25T08:09:15.818Z,4.60
2023-03-25T08:11:42.705Z,4.10
2023-03-25T08:14:09.163Z,4.75
2023-03-25T08:16:35.673Z,5.25
2023-03-25T08:19:02.551Z,5.05
2023-03-25T08:21:29.588Z,4.78
2023-03-25T08:24:02.607Z,5.18
2023-03-25T08:26:30.650Z,5.72
2023-03-25T08:28:58.040Z,5.05
2023-03-25T08:31:25.973Z,4.22
2023-03-25T08:33:52.791Z,4.60
2023-03-25T08:36:22.467Z,4.75
2023-03-25T08:38:49.799Z,5.72
2023-03-25T08:41:17.312Z,3.60
2023-03-25T08:43:45.137Z,5.70
2023-03-25T08:46:12.273Z,5.85
2023-03-25T08:48:39.703Z,4.90
2023-03-25T08:51:06.699Z,3.45
2023-03-25T08:53:33.251Z,5.57
2023-03-25T08:56:00.093Z,7.00
2023-03-25T08:58:26.852Z,4.10
2023-03-25T09:00:55.058Z,5.40
2023-03-25T09:03:22.965Z,4.80
2023-03-25T09:05:49.897Z,5.95
2023-03-25T09:08:16.741Z,4.70
2023-03-25T09:10:43.511Z,4.68
2023-03-25T09:13:10.466Z,5.90
2023-03-25T09:15:37.033Z,4.60
2023-03-25T09:18:05.174Z,5.15
2023-03-25T09:20:33.080Z,6.28
2023-03-25T09:22:59.965Z,6.10
2023-03-25T09:25:27.771Z,6.22
2023-03-25T09:27:54.280Z,6.97
2023-03-25T09:30:20.760Z,6.20
2023-03-25T09:32:47.560Z,6.28
2023-03-25T09:35:14.024Z,7.62
2023-03-25T09:37:40.539Z,6.30
2023-03-25T09:40:08.570Z,7.05
2023-03-25T09:42:58.954Z,5.45
2023-03-25T09:45:46.969Z,7.12
2023-03-25T09:48:37.664Z,7.55
2023-03-25T09:51:14.925Z,7.32
2023-03-25T09:53:58.503Z,6.82
2023-03-25T09:56:29.240Z,7.05
2023-03-25T09:59:03.429Z,7.87
2023-03-25T10:01:57.352Z,8.32
2023-03-25T10:04:47.213Z,7.43
2023-03-25T10:07:41.429Z,6.97
2023-03-25T10:10:26.714Z,8.43
2023-03-25T10:13:09.106Z,6.72
2023-03-25T10:15:49.557Z,7.82
2023-03-25T10:18:56.000Z,8.77
2023-03-25T10:21:49.664Z,8.60
2023-03-25T10:24:26.750Z,8.35
2023-03-25T10:27:01.975Z,7.12
2023-03-25T10:29:38.044Z,9.43
2023-03-25T10:32:13.021Z,7.10
2023-03-25T10:34:49.246Z,9.32
2023-03-25T10:37:35.037Z,7.60
2023-03-25T10:40:32.994Z,8.65
2023-03-25T10:43:27.589Z,8.65
2023-03-25T10:46:00.548Z,6.55
2023-03-25T10:48:29.204Z,6.93
2023-03-25T10:51:03.984Z,8.02
2023-03-25T10:53:30.902Z,6.80
2023-03-25T10:56:06.260Z,8.95
2023-03-25T10:58:36.646Z,9.20
2023-03-25T11:01:12.818Z,8.02
2023-03-25T11:03:41.352Z,9.75
2023-03-25T11:06:23.617Z,8.18
2023-03-25T11:09:11.684Z,10.23
2023-03-25T11:11:38.271Z,9.68
2023-03-25T11:14:05.212Z,9.80
2023-03-25T11:16:35.085Z,10.98
2023-03-25T11:19:03.202Z,11.00
2023-03-25T11:21:35.714Z,10.13
2023-03-25T11:24:05.783Z,8.80
2023-03-25T11:26:41.360Z,7.75
2023-03-25T11:29:14.124Z,9.85
2023-03-25T11:34:24.612Z,8.40
2023-03-25T11:36:59.108Z,8.32
2023-03-25T11:39:34.673Z,8.32
2023-03-25T11:42:28.207Z,8.35
2023-03-25T11:47:30.715Z,8.13
2023-03-25T11:49:57.573Z,8.63
2023-03-25T11:52:27.073Z,8.70
2023-03-25T11:54:55.617Z,7.22
2023-03-25T11:57:27.162Z,9.10
2023-03-25T12:00:11.233Z,8.60
2023-03-25T12:02:40.513Z,8.02
2023-03-25T12:05:14.280Z,8.85
2023-03-25T12:07:49.488Z,7.57
2023-03-25T12:10:54.304Z,6.80
2023-03-25T12:13:56.612Z,8.70
2023-03-25T12:16:51.657Z,8.10
2023-03-25T12:19:57.972Z,7.60
2023-03-25T12:22:58.312Z,9.93
2023-03-25T12:25:53.272Z,8.32
2023-03-25T12:28:44.231Z,8.93
2023-03-25T12:31:45.892Z,9.38
2023-03-25T12:34:39.831Z,8.00
2023-03-25T12:37:34.294Z,7.25
2023-03-25T12:40:30.781Z,7.37
2023-03-25T12:43:09.483Z,8.77
2023-03-25T12:45:50.441Z,7.70
2023-03-25T12:48:37.135Z,7.35
2023-03-25T12:51:22.053Z,7.53
2023-03-25T12:54:12.051Z,7.78
2023-03-25T12:57:03.919Z,7.70
2023-03-25T12:59:53.643Z,7.45
2023-03-25T13:02:51.931Z,7.30
2023-03-25T13:05:45.594Z,7.75
2023-03-25T13:08:21.777Z,11.12
2023-03-25T13:10:56.004Z,12.15
2023-03-25T13:13:26.037Z,12.37
2023-03-25T13:16:14.529Z,13.13
2023-03-25T13:18:51.660Z,11.90
2023-03-25T13:21:24.038Z,10.55
2023-03-25T13:24:04.214Z,9.27
2023-03-25T13:26:32.074Z,8.25
2023-03-25T13:29:01.077Z,7.57
2023-03-25T13:31:34.913Z,7.57
2023-03-25T13:34:30.197Z,6.87
2023-03-25T13:37:06.321Z,5.72
2023-03-25T13:40:11.952Z,7.40
2023-03-25T13:43:06.545Z,7.10
2023-03-25T13:45:48.791Z,8.32
2023-03-25T13:48:23.088Z,7.70
2023-03-25T13:50:51.178Z,7.37
2023-03-25T13:53:29.392Z,7.50
2023-03-25T13:56:35.792Z,8.48
2023-03-25T13:59:42.114Z,7.03
2023-03-25T14:02:47.216Z,8.60
2023-03-25T14:05:44.648Z,7.72
2023-03-25T14:08:39.519Z,8.10
2023-03-25T14:11:28.953Z,8.45
2023-03-25T14:14:02.776Z,7.62
2023-03-25T14:16:35.757Z,7.82
2023-03-25T14:19:06.600Z,8.45
2023-03-25T14:21:47.146Z,8.55
2023-03-25T14:24:21.996Z,9.48
2023-03-25T14:26:53.028Z,9.52
2023-03-25T14:29:41.740Z,8.13
2023-03-25T14:32:32.664Z,9.82
2023-03-25T14:35:40.649Z,8.27
2023-03-25T14:38:42.892Z,8.35
2023-03-25T14:41:09.743Z,8.52
2023-03-25T14:43:40.355Z,7.87
2023-03-25T14:46:18.804Z,7.93
2023-03-25T14:48:51.939Z,8.23
2023-03-25T14:51:40.973Z,7.65
2023-03-25T14:54:29.827Z,8.18
2023-03-25T14:57:06.058Z,8.15
2023-03-25T14:59:42.305Z,8.55
2023-03-25T15:02:21.902Z,9.30
2023-03-25T15:04:59.981Z,7.80
2023-03-25T15:07:58.484Z,8.18
2023-03-25T15:10:44.281Z,8.63
2023-03-25T15:13:23.586Z,8.50
2023-03-25T15:16:26.426Z,7.80
2023-03-25T15:19:00.422Z,9.65
2023-03-25T15:21:32.029Z,8.48
2023-03-25T15:24:21.829Z,8.35
2023-03-25T15:26:49.614Z,9.35
2023-03-25T15:29:46.214Z,11.12
2023-03-25T15:32:42.264Z,8.93
2023-03-25T15:35:44.565Z,9.02
2023-03-25T15:38:42.775Z,7.70
2023-03-25T15:41:34.000Z,9.15
2023-03-25T15:44:35.195Z,10.45
2023-03-25T15:47:20.095Z,9.30
2023-03-25T15:50:18.794Z,11.52
2023-03-25T15:53:01.660Z,10.43
2023-03-25T15:55:51.006Z,11.07
2023-03-25T15:58:30.916Z,10.13
2023-03-25T16:01:12.174Z,7.55
2023-03-25T16:03:39.471Z,9.65
2023-03-25T16:06:07.805Z,9.63
2023-03-25T16:08:39.343Z,9.55
2023-03-25T16:11:23.744Z,10.65
2023-03-25T16:14:16.376Z,12.65
2023-03-25T16:16:50.255Z,13.18
2023-03-25T16:19:22.277Z,12.82
2023-03-25T16:21:51.551Z,12.30
2023-03-25T16:24:23.490Z,13.05
2023-03-25T16:26:50.611Z,12.02
2023-03-25T16:29:22.670Z,11.00
2023-03-25T16:31:53.470Z,11.10
2023-03-25T16:34:20.797Z,10.57
2023-03-25T16:36:49.756Z,10.50
2023-03-25T16:39:17.370Z,10.45
2023-03-25T16:41:49.496Z,10.25
2023-03-25T16:44:21.378Z,11.90
2023-03-25T16:46:51.211Z,11.87
2023-03-25T16:49:28.410Z,11.65
2023-03-25T16:51:57.050Z,12.00
2023-03-25T16:54:51.250Z,13.20
2023-03-25T16:57:24.479Z,11.95
2023-03-25T16:59:53.434Z,12.02
2023-03-25T17:02:30.906Z,12.70
2023-03-25T17:05:18.297Z,10.60
2023-03-25T17:07:47.692Z,12.30
2023-03-25T17:10:25.657Z,12.73
2023-03-25T17:12:57.943Z,11.68
2023-03-25T17:15:26.596Z,9.63
2023-03-25T17:18:00.425Z,8.70
2023-03-25T17:20:36.102Z,10.50
2023-03-25T17:23:18.416Z,11.05
2023-03-25T17:26:06.398Z,10.18
2023-03-25T17:28:39.365Z,10.45
2023-03-25T17:31:35.789Z,11.52
2023-03-25T17:34:07.989Z,11.52
2023-03-25T17:36:37.362Z,12.73
2023-03-25T17:39:12.672Z,10.32
2023-03-25T17:41:39.814Z,10.13
2023-03-25T17:44:06.969Z,8.93
2023-03-25T17:46:34.542Z,9.65
2023-03-25T17:49:01.433Z,10.45
2023-03-25T17:51:30.573Z,10.43
2023-03-25T17:53:57.109Z,10.05
2023-03-25T17:56:26.941Z,10.82
2023-03-25T17:59:03.414Z,10.10
2023-03-25T18:01:32.003Z,9.38
2023-03-25T18:03:58.786Z,10.93
2023-03-25T18:06:27.616Z,10.23
2023-03-25T18:08:55.121Z,11.77
2023-03-25T18:11:22.379Z,11.00
2023-03-25T18:13:49.194Z,10.23
2023-03-25T18:16:19.888Z,8.00
2023-03-25T18:18:47.136Z,8.15
2023-03-25T18:21:15.770Z,9.50
2023-03-25T18:23:46.979Z,7.47
2023-03-25T18:26:16.626Z,10.05
2023-03-25T18:28:44.064Z,8.43
2023-03-25T18:31:16.070Z,7.87
2023-03-25T18:33:45.527Z,8.75
2023-03-25T18:36:14.055Z,8.63
2023-03-25T18:38:41.128Z,9.88
2023-03-25T18:41:10.504Z,11.65
2023-03-25T18:43:37.110Z,9.65
2023-03-25T18:46:04.707Z,9.35
2023-03-25T18:48:31.994Z,9.82
2023-03-25T18:50:59.493Z,10.38
2023-03-25T18:53:28.395Z,9.82
2023-03-25T18:55:59.254Z,11.85
2023-03-25T18:58:30.461Z,8.48
2023-03-25T19:00:58.343Z,13.68
2023-03-25T19:03:40.741Z,14.40
2023-03-25T19:06:12.380Z,13.13
2023-03-25T19:08:40.314Z,12.88
2023-03-25T19:11:19.104Z,12.95
2023-03-25T19:13:48.347Z,12.02
2023-03-25T19:16:14.995Z,12.37
2023-03-25T19:18:41.642Z,13.13
2023-03-25T19:21:09.889Z,12.40
2023-03-25T19:23:37.067Z,13.55
2023-03-25T19:26:03.727Z,15.43
2023-03-25T19:28:30.485Z,15.52
2023-03-25T19:31:00.434Z,13.88
2023-03-25T19:33:30.217Z,12.68
2023-03-25T19:36:00.439Z,11.75
2023-03-25T19:38:28.051Z,13.95
2023-03-25T19:41:06.016Z,11.20
2023-03-25T19:43:33.127Z,12.43
2023-03-25T19:46:00.292Z,9.95
2023-03-25T19:48:29.088Z,14.45
2023-03-25T19:50:56.699Z,13.25
2023-03-25T19:53:25.477Z,13.38
2023-03-25T19:55:52.836Z,14.57
2023-03-25T19:58:21.991Z,13.13
2023-03-25T20:00:48.742Z,14.38
2023-03-25T20:03:15.777Z,14.68
2023-03-25T20:05:42.316Z,13.80
2023-03-25T20:08:09.027Z,13.62
2023-03-25T20:10:38.787Z,11.70
2023-03-25T20:13:05.476Z,13.25
2023-03-25T20:15:32.437Z,14.05
2023-03-25T20:17:59.656Z,13.48
2023-03-25T20:20:26.358Z,13.15
2023-03-25T20:22:53.336Z,14.82
2023-03-25T20:25:20.712Z,13.60
2023-03-25T20:27:47.243Z,16.90
2023-03-25T20:30:17.413Z,11.77
2023-03-25T20:32:47.523Z,11.30
2023-03-25T20:35:16.051Z,8.15
2023-03-25T20:37:44.304Z,11.10
2023-03-25T20:40:14.854Z,9.23
2023-03-25T20:42:43.223Z,8.65
2023-03-25T20:45:13.016Z,28.92
2023-03-25T20:47:40.834Z,12.82
